Time;durP1;ratioP1;P1;durP2;ratioP2;P2;SDS_P1;SDS_P2;PMS_P1;PMS_P2;Temp;Humidity;BMP_temperature;BMP_pressure;BME280_temperature;BME280_humidity;BME280_pressure;Samples;Min_cycle;Max_cycle;Signal;HPM_P1;HPM_P2
2023/02/27 00:02:04;;;;;;;1.37;1.20;;;3.10;36.40;;;;;;10354352;28;20231;-71
2023/02/27 00:07:07;;;;;;;1.30;1.20;;;3.10;36.40;;;;;;10356961;28;20248;-70
2023/02/27 00:12:11;;;;;;;1.30;1.20;;;3.10;36.50;;;;;;10356934;28;20221;-71
2023/02/27 00:17:16;;;;;;;2.17;1.30;;;3.10;36.50;;;;;;10362910;28;20240;-71
2023/02/27 00:22:19;;;;;;;1.43;1.30;;;3.00;36.30;;;;;;10363116;28;20226;-71
2023/02/27 00:27:22;;;;;;;1.77;1.37;;;3.00;36.30;;;;;;10366105;28;20234;-70
2023/02/27 00:32:28;;;;;;;1.40;1.30;;;3.10;36.40;;;;;;10364391;28;20226;-71
2023/02/27 00:37:31;;;;;;;2.90;1.50;;;3.00;36.40;;;;;;10363699;28;20237;-71
2023/02/27 00:42:35;;;;;;;1.63;1.50;;;2.90;36.40;;;;;;10363887;28;20230;-71
2023/02/27 00:47:39;;;;;;;1.60;1.50;;;2.90;36.60;;;;;;10363738;28;20241;-70
2023/02/27 00:52:42;;;;;;;2.03;1.67;;;2.90;37.40;;;;;;10362353;28;20226;-70
2023/02/27 00:57:46;;;;;;;3.13;1.80;;;2.90;36.80;;;;;;10363622;28;20654;-70
2023/02/27 01:02:50;;;;;;;1.93;1.53;;;2.90;36.90;;;;;;10355766;28;20320;-70
2023/02/27 01:07:54;;;;;;;1.57;1.47;;;2.90;37.00;;;;;;10361303;28;20632;-71
2023/02/27 01:12:57;;;;;;;2.93;1.53;;;3.00;37.00;;;;;;10357860;28;20233;-71
2023/02/27 01:18:01;;;;;;;1.60;1.50;;;2.90;36.90;;;;;;10360033;28;20227;-72
2023/02/27 01:23:04;;;;;;;2.20;1.63;;;2.90;37.00;;;;;;10362399;28;20218;-71
2023/02/27 01:28:07;;;;;;;2.10;1.57;;;3.00;37.00;;;;;;10360365;28;20226;-71
2023/02/27 01:33:12;;;;;;;1.57;1.47;;;3.00;37.00;;;;;;10363221;28;20223;-71
2023/02/27 01:38:15;;;;;;;1.77;1.67;;;3.00;37.00;;;;;;10361234;28;20230;-71
2023/02/27 01:43:20;;;;;;;2.10;1.60;;;3.00;37.00;;;;;;10360167;28;20222;-71
2023/02/27 01:48:29;;;;;;;1.60;1.50;;;3.00;37.00;;;;;;10360579;28;20241;-72
2023/02/27 01:53:34;;;;;;;2.60;1.60;;;3.00;37.10;;;;;;10362582;28;20226;-71
2023/02/27 01:58:38;;;;;;;1.80;1.70;;;3.00;37.00;;;;;;10361183;28;20230;-72
2023/02/27 02:03:48;;;;;;;1.87;1.67;;;3.10;37.20;;;;;;10356658;28;20230;-72
2023/02/27 02:08:54;;;;;;;1.80;1.70;;;3.10;37.20;;;;;;10358209;28;20241;-72
2023/02/27 02:14:00;;;;;;;2.13;1.60;;;3.10;37.20;;;;;;10358427;28;20227;-71
2023/02/27 02:19:31;;;;;;;1.70;1.60;;;3.10;37.10;;;;;;10359951;28;20714;-71
2023/02/27 02:25:13;;;;;;;2.63;1.60;;;3.20;37.10;;;;;;10360174;28;20230;-71
2023/02/27 02:31:09;;;;;;;2.63;1.70;;;3.20;37.20;;;;;;10358406;28;20225;-71
2023/02/27 02:36:48;;;;;;;1.80;1.70;;;3.20;37.20;;;;;;10357422;28;20219;-71
2023/02/27 02:42:02;;;;;;;2.23;1.70;;;3.20;37.20;;;;;;10343349;28;20234;-71
2023/02/27 02:47:13;;;;;;;1.60;1.50;;;3.20;37.10;;;;;;10358265;28;20235;-71
2023/02/27 02:52:27;;;;;;;2.27;2.07;;;3.20;37.20;;;;;;10358983;28;20887;-71
2023/02/27 02:57:36;;;;;;;2.47;1.80;;;3.20;37.20;;;;;;10359843;28;20236;-69
2023/02/27 03:02:44;;;;;;;2.97;1.90;;;3.20;37.10;;;;;;10354392;28;20218;-69
2023/02/27 03:07:52;;;;;;;2.10;1.73;;;3.10;37.10;;;;;;10357991;28;20229;-70
2023/02/27 03:13:02;;;;;;;2.63;2.00;;;3.20;37.20;;;;;;10359333;28;20710;-69
2023/02/27 03:18:08;;;;;;;2.13;1.90;;;3.20;37.10;;;;;;10356925;28;20226;-69
2023/02/27 03:23:14;;;;;;;2.30;2.00;;;3.20;37.00;;;;;;10358744;28;20234;-70
2023/02/27 03:28:23;;;;;;;1.90;1.80;;;3.20;37.10;;;;;;10356765;28;20602;-70
2023/02/27 03:33:31;;;;;;;2.20;2.00;;;3.30;37.20;;;;;;10357905;28;20221;-70
2023/02/27 03:38:39;;;;;;;2.90;2.13;;;3.20;37.10;;;;;;10358157;28;20328;-70
2023/02/27 03:43:53;;;;;;;2.30;2.10;;;3.20;37.00;;;;;;10354285;28;20230;-70
2023/02/27 03:48:56;;;;;;;3.80;2.03;;;3.30;37.20;;;;;;10358554;28;20234;-69
2023/02/27 03:54:04;;;;;;;2.33;2.00;;;3.20;37.10;;;;;;10359600;28;20721;-69
2023/02/27 03:59:09;;;;;;;2.10;1.90;;;3.20;37.10;;;;;;10363418;28;20589;-70
2023/02/27 04:04:17;;;;;;;2.30;2.10;;;3.20;37.10;;;;;;10360921;28;20246;-69
2023/02/27 04:09:30;;;;;;;2.10;1.73;;;3.20;37.10;;;;;;10364684;28;20249;-70
2023/02/27 04:14:51;;;;;;;2.23;1.90;;;3.20;37.10;;;;;;10366723;28;20279;-69
2023/02/27 04:20:17;;;;;;;2.10;1.87;;;3.10;37.00;;;;;;10363142;28;20237;-70
2023/02/27 04:25:32;;;;;;;2.27;2.07;;;3.10;37.00;;;;;;10361261;28;20243;-70
2023/02/27 04:30:46;;;;;;;3.33;2.30;;;3.10;37.80;;;;;;10361652;28;20637;-70
2023/02/27 04:35:52;;;;;;;2.33;2.13;;;3.10;37.00;;;;;;10361108;28;20253;-70
2023/02/27 04:41:01;;;;;;;2.53;2.03;;;3.10;37.10;;;;;;10363491;28;20230;-70
2023/02/27 04:46:09;;;;;;;2.30;2.10;;;3.10;37.10;;;;;;10361008;28;20597;-71
2023/02/27 04:51:16;;;;;;;2.13;1.93;;;3.00;37.10;;;;;;10364836;28;20275;-72
2023/02/27 04:56:24;;;;;;;2.80;1.97;;;3.10;37.20;;;;;;10360114;28;20607;-71
2023/02/27 05:01:36;;;;;;;2.33;2.13;;;3.10;37.20;;;;;;10358413;28;20602;-70
2023/02/27 05:06:43;;;;;;;2.27;1.93;;;3.00;37.20;;;;;;10361967;28;20236;-72
2023/02/27 05:11:53;;;;;;;2.30;2.10;;;3.00;37.20;;;;;;10357320;28;20229;-71
2023/02/27 05:17:06;;;;;;;2.37;2.17;;;3.10;37.30;;;;;;10358024;28;20310;-72
2023/02/27 05:22:23;;;;;;;2.63;2.00;;;3.00;37.20;;;;;;10358546;28;20245;-71
2023/02/27 05:27:35;;;;;;;2.17;2.07;;;2.90;37.30;;;;;;10361293;28;20237;-72
2023/02/27 05:32:45;;;;;;;2.50;2.00;;;2.90;37.30;;;;;;10357108;28;20222;-71
2023/02/27 05:37:53;;;;;;;2.17;1.93;;;2.90;37.30;;;;;;10361679;28;21097;-71
2023/02/27 05:43:02;;;;;;;2.40;2.20;;;2.90;37.30;;;;;;10355246;28;20219;-72
2023/02/27 05:48:09;;;;;;;2.60;2.00;;;2.90;37.40;;;;;;10337580;28;20222;-72
2023/02/27 05:53:16;;;;;;;2.63;2.20;;;2.90;37.40;;;;;;10322645;28;20223;-71
2023/02/27 05:58:23;;;;;;;2.30;2.10;;;3.00;37.50;;;;;;10345780;28;20226;-71
2023/02/27 06:03:31;;;;;;;2.33;2.13;;;2.90;37.50;;;;;;10329700;28;20726;-71
2023/02/27 06:08:35;;;;;;;2.50;2.30;;;2.90;37.50;;;;;;10342105;28;20226;-71
2023/02/27 06:13:38;;;;;;;3.00;2.47;;;2.90;37.40;;;;;;10334130;28;20230;-71
2023/02/27 06:18:45;;;;;;;2.37;2.17;;;2.90;37.50;;;;;;10341612;28;20720;-72
2023/02/27 06:23:48;;;;;;;3.17;2.30;;;3.00;37.50;;;;;;10353704;28;20581;-72
2023/02/27 06:28:52;;;;;;;2.70;2.13;;;2.90;37.80;;;;;;10343411;28;20239;-72
2023/02/27 06:33:56;;;;;;;3.03;2.20;;;2.90;37.50;;;;;;10350206;28;20592;-72
2023/02/27 06:38:59;;;;;;;2.33;2.10;;;3.00;37.50;;;;;;10359417;28;20733;-72
2023/02/27 06:44:03;;;;;;;2.60;2.40;;;3.00;37.40;;;;;;10344978;28;20580;-72
2023/02/27 06:49:07;;;;;;;2.30;2.10;;;3.00;37.30;;;;;;10352019;28;20229;-73
2023/02/27 06:54:10;;;;;;;2.53;2.10;;;2.90;37.30;;;;;;10343857;28;20229;-72
2023/02/27 06:59:14;;;;;;;3.10;2.30;;;3.00;37.50;;;;;;10337170;28;20230;-72
2023/02/27 07:04:18;;;;;;;2.70;2.40;;;2.90;37.40;;;;;;10352177;28;20230;-71
2023/02/27 07:09:22;;;;;;;3.50;2.57;;;3.00;37.50;;;;;;10359906;28;20264;-71
2023/02/27 07:14:25;;;;;;;2.30;2.10;;;3.00;37.50;;;;;;10358391;28;20248;-71
2023/02/27 07:19:31;;;;;;;2.30;2.10;;;3.00;37.30;;;;;;10358944;28;20230;-71
2023/02/27 07:24:34;;;;;;;2.83;2.50;;;3.00;37.40;;;;;;10360011;28;20387;-71
2023/02/27 07:29:37;;;;;;;2.87;2.40;;;3.00;37.30;;;;;;10368961;28;20241;-71
2023/02/27 07:34:42;;;;;;;2.77;2.03;;;3.10;37.30;;;;;;10366179;28;20218;-71
2023/02/27 07:39:45;;;;;;;2.40;2.20;;;3.10;37.10;;;;;;10369478;28;20230;-71
2023/02/27 07:44:48;;;;;;;4.03;2.33;;;3.10;37.00;;;;;;10366822;28;20230;-71
2023/02/27 07:49:52;;;;;;;2.37;2.03;;;3.20;37.00;;;;;;10363968;28;20245;-71
2023/02/27 07:54:56;;;;;;;4.20;2.33;;;3.20;37.00;;;;;;10366973;28;20226;-71
2023/02/27 07:59:59;;;;;;;2.47;2.17;;;3.30;37.10;;;;;;10367386;28;20284;-71
2023/02/27 08:05:04;;;;;;;3.83;2.20;;;3.30;36.90;;;;;;10361483;28;20702;-71
2023/02/27 08:10:08;;;;;;;2.37;2.17;;;3.40;36.70;;;;;;10366516;28;20222;-70
2023/02/27 08:15:11;;;;;;;2.33;2.13;;;3.40;36.50;;;;;;10367551;28;20743;-69
2023/02/27 08:20:17;;;;;;;2.77;2.23;;;3.50;36.60;;;;;;10356700;28;20222;-69
2023/02/27 08:25:21;;;;;;;2.30;2.10;;;3.60;36.40;;;;;;10364482;28;20222;-69
2023/02/27 08:30:24;;;;;;;2.30;2.00;;;3.70;36.40;;;;;;10362369;28;20241;-69
2023/02/27 08:35:29;;;;;;;2.40;2.20;;;3.80;36.20;;;;;;10366379;28;20230;-69
2023/02/27 08:40:33;;;;;;;2.63;2.30;;;3.90;35.90;;;;;;10367830;28;20295;-69
2023/02/27 08:45:36;;;;;;;2.40;2.10;;;4.00;36.00;;;;;;10347848;28;20242;-68
2023/02/27 08:50:40;;;;;;;2.40;2.20;;;4.10;36.10;;;;;;10325864;28;20229;-68
2023/02/27 08:55:43;;;;;;;3.37;2.70;;;4.30;35.50;;;;;;10322210;28;20627;-68
2023/02/27 09:00:46;;;;;;;2.67;2.47;;;4.30;35.70;;;;;;10347396;28;20226;-68
2023/02/27 09:05:51;;;;;;;3.33;2.23;;;4.40;35.80;;;;;;10340763;28;20269;-68
2023/02/27 09:10:57;;;;;;;3.77;2.20;;;4.50;35.40;;;;;;10354620;28;20227;-68
2023/02/27 09:16:00;;;;;;;3.10;2.30;;;4.60;34.90;;;;;;10335819;28;20230;-68
2023/02/27 09:21:05;;;;;;;2.83;2.40;;;4.70;34.90;;;;;;10350040;28;20242;-68
2023/02/27 09:26:09;;;;;;;2.77;2.03;;;4.70;35.20;;;;;;10364491;28;20230;-68
2023/02/27 09:31:12;;;;;;;2.67;2.37;;;4.80;34.90;;;;;;10365105;28;20706;-68
2023/02/27 09:36:17;;;;;;;2.27;2.00;;;4.90;34.70;;;;;;10362254;28;20222;-68
2023/02/27 09:41:32;;;;;;;3.67;2.20;;;4.90;34.50;;;;;;10361062;28;20595;-68
2023/02/27 09:46:35;;;;;;;2.57;2.00;;;5.00;33.10;;;;;;10361896;28;20234;-69
2023/02/27 09:51:40;;;;;;;2.37;2.17;;;5.10;34.30;;;;;;10361842;28;20222;-69
2023/02/27 09:56:48;;;;;;;1.83;1.73;;;5.10;32.80;;;;;;10361491;28;20741;-69
2023/02/27 10:01:55;;;;;;;2.40;2.00;;;5.20;33.10;;;;;;10357726;28;20226;-69
2023/02/27 10:07:08;;;;;;;2.60;2.10;;;5.30;33.40;;;;;;10358114;28;20238;-69
2023/02/27 10:12:26;;;;;;;2.70;2.00;;;5.40;32.50;;;;;;10357987;28;20226;-69
2023/02/27 10:17:33;;;;;;;3.73;3.33;;;5.50;32.50;;;;;;10354896;28;20235;-69
2023/02/27 10:22:43;;;;;;;2.30;2.10;;;5.50;33.00;;;;;;10355926;28;20897;-69
2023/02/27 10:27:48;;;;;;;2.50;2.00;;;5.60;32.20;;;;;;10354181;28;20719;-69
2023/02/27 10:32:55;;;;;;;2.00;1.80;;;5.70;32.80;;;;;;10356017;28;20313;-69
2023/02/27 10:38:04;;;;;;;1.70;1.60;;;5.70;32.30;;;;;;10331311;28;20738;-69
2023/02/27 10:43:07;;;;;;;2.40;1.97;;;5.80;32.10;;;;;;10355744;28;20233;-69
2023/02/27 10:48:11;;;;;;;2.10;1.90;;;5.90;32.80;;;;;;10355698;28;20234;-69
2023/02/27 10:53:21;;;;;;;2.30;2.10;;;5.90;31.50;;;;;;10340622;28;20231;-69
2023/02/27 10:58:24;;;;;;;4.87;4.43;;;5.80;30.10;;;;;;10312523;28;20234;-69
2023/02/27 11:03:32;;;;;;;2.50;2.30;;;5.60;31.60;;;;;;10317758;28;20270;-69
2023/02/27 11:08:36;;;;;;;3.50;2.37;;;5.60;31.20;;;;;;10325910;28;20284;-69
2023/02/27 11:13:42;;;;;;;2.33;2.10;;;5.50;31.80;;;;;;10331748;28;20721;-69
2023/02/27 11:18:46;;;;;;;2.40;1.80;;;5.50;31.50;;;;;;10346647;28;20740;-69
2023/02/27 11:23:54;;;;;;;2.00;1.80;;;5.50;31.70;;;;;;10349740;28;20739;-69
2023/02/27 11:29:13;;;;;;;2.10;1.70;;;5.40;30.50;;;;;;10350080;28;20619;-69
2023/02/27 11:34:24;;;;;;;3.23;1.73;;;5.40;30.00;;;;;;10348185;28;20228;-69
2023/02/27 11:39:34;;;;;;;3.40;3.10;;;5.40;30.80;;;;;;10349363;28;20704;-69
2023/02/27 11:44:38;;;;;;;6.17;4.30;;;5.40;30.70;;;;;;10350050;28;20238;-70
2023/02/27 11:50:18;;;;;;;2.47;2.10;;;5.40;30.50;;;;;;10347283;28;20733;-70
2023/02/27 11:55:27;;;;;;;2.97;2.17;;;5.40;30.50;;;;;;10308207;28;20644;-69
2023/02/27 12:00:37;;;;;;;2.20;1.77;;;5.40;30.20;;;;;;10308475;28;20231;-69
2023/02/27 12:05:46;;;;;;;2.23;1.83;;;5.40;30.30;;;;;;10306833;28;20235;-69
2023/02/27 12:10:55;;;;;;;1.67;1.57;;;5.50;30.50;;;;;;10309133;28;20242;-69
2023/02/27 12:16:21;;;;;;;1.63;1.53;;;5.50;30.50;;;;;;10308264;28;20365;-69
2023/02/27 12:21:27;;;;;;;2.10;1.90;;;5.50;30.20;;;;;;10309876;28;20699;-69
2023/02/27 12:26:36;;;;;;;2.10;1.60;;;5.50;30.00;;;;;;10313138;28;20242;-69
2023/02/27 12:31:45;;;;;;;2.67;1.90;;;5.50;30.30;;;;;;10320010;28;20226;-69
2023/02/27 12:36:49;;;;;;;2.37;1.90;;;5.50;30.40;;;;;;10320585;28;20237;-69
2023/02/27 12:42:23;;;;;;;2.77;2.13;;;5.50;31.20;;;;;;10312654;28;20246;-69
2023/02/27 12:47:33;;;;;;;2.30;2.10;;;5.50;30.00;;;;;;10311088;28;20769;-69
2023/02/27 12:52:55;;;;;;;1.87;1.77;;;5.50;30.00;;;;;;10313163;28;20554;-69
2023/02/27 12:58:15;;;;;;;1.90;1.70;;;5.50;29.50;;;;;;10354079;28;20237;-69
2023/02/27 13:03:23;;;;;;;4.33;1.93;;;5.60;28.70;;;;;;10353304;28;20218;-69
2023/02/27 13:08:57;;;;;;;1.83;1.70;;;5.50;30.00;;;;;;10354606;28;20618;-69
2023/02/27 13:14:05;;;;;;;1.97;1.77;;;5.50;29.80;;;;;;10350079;28;20561;-70
2023/02/27 13:19:15;;;;;;;2.13;1.93;;;5.50;30.20;;;;;;10352998;28;20600;-70
2023/02/27 13:24:25;;;;;;;1.90;1.80;;;5.50;29.80;;;;;;10351778;28;20232;-70
2023/02/27 13:29:37;;;;;;;2.20;2.00;;;5.60;29.80;;;;;;10353107;28;20622;-70
2023/02/27 13:34:43;;;;;;;2.40;2.20;;;5.60;29.80;;;;;;10347738;28;20706;-69
2023/02/27 13:39:58;;;;;;;1.93;1.83;;;5.60;30.30;;;;;;10356451;28;20749;-69
2023/02/27 13:45:04;;;;;;;2.07;1.90;;;5.70;29.30;;;;;;10354628;28;20230;-70
2023/02/27 13:50:40;;;;;;;2.30;2.10;;;5.70;30.10;;;;;;10355340;28;20229;-69
2023/02/27 13:55:44;;;;;;;2.13;1.90;;;5.70;28.50;;;;;;10353549;28;20230;-69
2023/02/27 14:01:02;;;;;;;2.10;1.90;;;5.70;30.00;;;;;;10353507;28;20226;-69
2023/02/27 14:06:06;;;;;;;2.30;2.10;;;5.70;29.20;;;;;;10357494;28;20311;-70
2023/02/27 14:11:19;;;;;;;4.07;3.00;;;5.70;29.80;;;;;;10356486;28;20264;-69
2023/02/27 14:16:54;;;;;;;2.47;2.00;;;5.80;29.10;;;;;;10355395;28;20241;-69
2023/02/27 14:22:00;;;;;;;2.30;2.10;;;5.80;29.10;;;;;;10353806;28;20599;-70
2023/02/27 14:27:04;;;;;;;2.20;2.00;;;5.80;30.00;;;;;;10354196;28;20324;-69
2023/02/27 14:32:20;;;;;;;2.27;1.90;;;5.90;30.40;;;;;;10355430;28;20236;-69
2023/02/27 14:37:25;;;;;;;2.77;1.80;;;6.00;29.50;;;;;;10355618;28;20328;-69
2023/02/27 14:42:48;;;;;;;2.40;2.20;;;6.10;29.30;;;;;;10357472;28;20560;-69
2023/02/27 14:47:53;;;;;;;2.43;2.07;;;6.00;28.10;;;;;;10354683;28;20296;-69
2023/02/27 14:52:56;;;;;;;2.43;2.10;;;6.00;29.50;;;;;;10356692;28;20245;-69
2023/02/27 14:58:08;;;;;;;2.60;2.10;;;6.00;29.90;;;;;;10354874;28;20238;-69
2023/02/27 15:03:19;;;;;;;2.43;2.17;;;6.00;29.90;;;;;;10356826;28;20222;-69
2023/02/27 15:08:26;;;;;;;2.37;2.17;;;6.10;29.20;;;;;;10352800;28;20238;-69
2023/02/27 15:13:32;;;;;;;2.57;2.10;;;6.10;29.80;;;;;;10353488;28;20597;-69
2023/02/27 15:18:40;;;;;;;2.80;2.10;;;6.00;29.80;;;;;;10356903;28;20234;-70
2023/02/27 15:23:43;;;;;;;2.20;2.00;;;6.00;29.80;;;;;;10354531;28;20794;-72
2023/02/27 15:28:49;;;;;;;2.10;1.90;;;6.00;30.00;;;;;;10354643;28;20234;-70
2023/02/27 15:33:54;;;;;;;2.10;1.90;;;6.00;29.90;;;;;;10355524;28;20302;-70
2023/02/27 15:39:07;;;;;;;2.20;2.00;;;5.90;29.70;;;;;;10340323;28;20777;-70
2023/02/27 15:44:12;;;;;;;2.07;1.80;;;5.80;29.20;;;;;;10345995;28;20305;-70
2023/02/27 15:49:23;;;;;;;2.83;1.70;;;5.70;30.00;;;;;;10323375;28;20726;-70
2023/02/27 15:54:31;;;;;;;1.87;1.77;;;5.60;29.70;;;;;;10324444;28;20227;-70
2023/02/27 15:59:40;;;;;;;2.30;2.07;;;5.60;30.00;;;;;;10336372;28;20730;-70
2023/02/27 16:04:45;;;;;;;1.87;1.70;;;5.60;29.80;;;;;;10362877;28;20715;-70
2023/02/27 16:09:52;;;;;;;2.63;2.30;;;5.60;29.90;;;;;;10341428;28;20250;-70
2023/02/27 16:15:19;;;;;;;1.97;1.80;;;5.60;30.10;;;;;;10323668;28;20234;-71
2023/02/27 16:20:37;;;;;;;2.20;2.00;;;5.60;29.40;;;;;;10359343;28;20226;-70
2023/02/27 16:25:40;;;;;;;2.23;1.90;;;5.60;29.60;;;;;;10357908;28;20695;-70
2023/02/27 16:30:44;;;;;;;2.10;1.90;;;5.60;30.10;;;;;;10345984;28;20231;-70
2023/02/27 16:35:49;;;;;;;3.07;2.30;;;5.60;30.10;;;;;;10351721;28;20234;-70
2023/02/27 16:40:52;;;;;;;2.40;2.20;;;5.50;30.00;;;;;;10336150;28;20254;-71
2023/02/27 16:45:57;;;;;;;2.60;2.20;;;5.40;30.30;;;;;;10339602;28;20231;-72
2023/02/27 16:51:02;;;;;;;2.00;1.80;;;5.40;30.10;;;;;;10337510;28;20691;-72
2023/02/27 16:56:06;;;;;;;2.27;1.90;;;5.40;30.30;;;;;;10359247;28;20325;-72
2023/02/27 17:01:09;;;;;;;3.87;2.03;;;5.30;30.40;;;;;;10360392;28;20231;-72
2023/02/27 17:06:16;;;;;;;2.53;1.77;;;5.30;30.30;;;;;;10357691;28;20601;-72
2023/02/27 17:11:19;;;;;;;3.23;2.00;;;5.30;30.20;;;;;;10357717;28;20229;-71
2023/02/27 17:16:23;;;;;;;2.63;1.90;;;5.20;30.30;;;;;;10346058;28;20222;-71
2023/02/27 17:21:27;;;;;;;3.10;2.10;;;5.20;30.30;;;;;;10353443;28;20233;-72
2023/02/27 17:26:31;;;;;;;2.10;1.90;;;5.20;30.40;;;;;;10342856;28;20629;-71
2023/02/27 17:31:34;;;;;;;3.13;1.90;;;5.20;30.40;;;;;;10356693;28;20273;-70
2023/02/27 17:36:38;;;;;;;2.63;1.83;;;5.20;30.40;;;;;;10344013;28;20230;-71
2023/02/27 17:41:43;;;;;;;2.80;2.00;;;5.20;30.30;;;;;;10330709;28;20223;-71
2023/02/27 17:46:46;;;;;;;4.47;2.00;;;5.20;30.50;;;;;;10323380;28;20615;-71
2023/02/27 17:51:51;;;;;;;2.20;2.00;;;5.20;30.50;;;;;;10356979;28;20754;-71
2023/02/27 17:56:54;;;;;;;2.43;2.10;;;5.10;30.30;;;;;;10353874;28;20230;-70
2023/02/27 18:01:57;;;;;;;2.03;1.83;;;5.10;30.40;;;;;;10321011;28;20243;-71
2023/02/27 18:07:02;;;;;;;2.23;1.90;;;5.10;30.50;;;;;;10318218;28;20235;-70
2023/02/27 18:12:05;;;;;;;3.03;2.13;;;5.10;30.50;;;;;;10357301;28;20233;-71
2023/02/27 18:17:11;;;;;;;2.80;1.93;;;5.10;30.70;;;;;;10335523;28;20238;-71
2023/02/27 18:22:15;;;;;;;2.00;1.80;;;5.10;30.80;;;;;;10312891;28;20305;-71
2023/02/27 18:27:19;;;;;;;2.33;1.80;;;5.10;30.70;;;;;;10347760;28;20745;-71
2023/02/27 18:32:22;;;;;;;1.90;1.80;;;5.10;30.80;;;;;;10358276;28;20238;-72
2023/02/27 18:37:26;;;;;;;2.00;1.80;;;5.00;30.70;;;;;;10353626;28;20261;-71
2023/02/27 18:42:29;;;;;;;1.77;1.63;;;5.10;30.80;;;;;;10359375;28;20226;-72
2023/02/27 18:47:32;;;;;;;2.70;1.90;;;5.00;30.80;;;;;;10355660;28;20241;-72
2023/02/27 18:52:37;;;;;;;1.97;1.67;;;5.10;30.80;;;;;;10357742;28;20249;-72
2023/02/27 18:57:40;;;;;;;2.70;2.00;;;5.10;30.80;;;;;;10356719;28;20727;-71
2023/02/27 19:02:44;;;;;;;2.07;1.77;;;5.10;30.80;;;;;;10355635;28;20226;-72
2023/02/27 19:07:48;;;;;;;3.90;2.40;;;5.10;30.90;;;;;;10351949;28;20229;-72
2023/02/27 19:12:51;;;;;;;4.63;4.23;;;5.10;30.80;;;;;;10351187;28;20246;-71
2023/02/27 19:17:54;;;;;;;3.60;3.30;;;5.10;31.00;;;;;;10347805;28;20235;-71
2023/02/27 19:22:59;;;;;;;3.23;2.80;;;5.20;31.20;;;;;;10366918;28;20233;-71
2023/02/27 19:28:03;;;;;;;2.83;2.60;;;5.20;31.00;;;;;;10367663;28;20226;-71
2023/02/27 19:33:07;;;;;;;2.87;2.60;;;5.20;31.20;;;;;;10364656;28;20229;-72
2023/02/27 19:38:12;;;;;;;2.90;2.60;;;5.30;31.00;;;;;;10369515;28;20655;-72
2023/02/27 19:43:15;;;;;;;2.90;2.30;;;5.30;31.00;;;;;;10368995;28;20222;-71
2023/02/27 19:48:20;;;;;;;2.23;2.10;;;5.30;31.00;;;;;;10368454;28;20754;-72
2023/02/27 19:53:25;;;;;;;3.40;2.37;;;5.30;31.00;;;;;;10332833;28;20601;-72
2023/02/27 19:58:28;;;;;;;3.77;2.60;;;5.30;31.00;;;;;;10354653;28;20239;-73
2023/02/27 20:03:32;;;;;;;2.60;2.40;;;5.30;30.20;;;;;;10345773;28;20715;-72
2023/02/27 20:08:36;;;;;;;2.57;2.20;;;5.20;30.50;;;;;;10353553;28;20281;-72
2023/02/27 20:13:40;;;;;;;2.23;2.03;;;5.10;30.30;;;;;;10368729;28;20226;-72
2023/02/27 20:18:43;;;;;;;2.67;2.43;;;4.90;30.10;;;;;;10366461;28;20230;-72
2023/02/27 20:23:49;;;;;;;2.93;2.20;;;4.90;30.30;;;;;;10365077;28;20237;-72
2023/02/27 20:28:54;;;;;;;2.20;2.00;;;4.80;30.10;;;;;;10364961;28;20226;-72
2023/02/27 20:33:59;;;;;;;2.20;2.00;;;4.80;30.40;;;;;;10361474;28;20285;-72
2023/02/27 20:39:05;;;;;;;2.87;2.20;;;4.80;30.50;;;;;;10360376;28;20234;-73
2023/02/27 20:44:10;;;;;;;2.73;2.30;;;4.80;30.50;;;;;;10342466;28;20239;-73
2023/02/27 20:49:14;;;;;;;2.50;2.30;;;4.80;30.80;;;;;;10350470;28;20250;-72
2023/02/27 20:54:19;;;;;;;2.67;2.30;;;4.80;30.70;;;;;;10355410;28;20258;-72
2023/02/27 20:59:23;;;;;;;2.73;2.37;;;4.80;30.70;;;;;;10361401;28;20293;-72
2023/02/27 21:04:40;;;;;;;2.37;2.17;;;4.80;30.80;;;;;;10358095;28;20222;-73
2023/02/27 21:09:45;;;;;;;2.40;2.20;;;4.80;30.60;;;;;;10360677;28;20518;-72
2023/02/27 21:14:49;;;;;;;2.20;2.00;;;4.70;30.60;;;;;;10354666;28;20222;-72
2023/02/27 21:19:52;;;;;;;3.73;2.00;;;4.70;30.80;;;;;;10352178;28;20608;-72
2023/02/27 21:24:56;;;;;;;4.03;2.20;;;4.70;30.80;;;;;;10354289;28;20226;-72
2023/02/27 21:29:59;;;;;;;2.47;2.27;;;4.70;30.70;;;;;;10353117;28;20234;-72
2023/02/27 21:35:03;;;;;;;2.43;2.20;;;4.70;30.90;;;;;;10352888;28;20239;-73
2023/02/27 21:40:09;;;;;;;2.40;2.20;;;4.60;30.80;;;;;;10355938;28;20545;-73
2023/02/27 21:45:12;;;;;;;2.33;2.13;;;4.60;30.60;;;;;;10340979;28;20219;-73
2023/02/27 21:50:17;;;;;;;2.30;2.10;;;4.60;30.90;;;;;;10343851;28;20231;-73
2023/02/27 21:55:21;;;;;;;2.40;2.20;;;4.50;31.00;;;;;;10333622;28;20227;-72
2023/02/27 22:00:26;;;;;;;2.73;2.27;;;4.60;30.90;;;;;;10349265;28;20710;-72
2023/02/27 22:05:29;;;;;;;2.03;1.90;;;4.60;31.00;;;;;;10327691;28;20230;-72
2023/02/27 22:10:34;;;;;;;2.30;2.10;;;4.60;31.10;;;;;;10333277;28;20244;-72
2023/02/27 22:15:38;;;;;;;2.20;2.00;;;4.40;30.80;;;;;;10356127;28;20226;-72
2023/02/27 22:20:41;;;;;;;2.70;2.50;;;4.40;31.00;;;;;;10345175;28;20245;-73
2023/02/27 22:25:46;;;;;;;2.47;2.27;;;4.40;31.00;;;;;;10330252;28;20235;-72
2023/02/27 22:30:49;;;;;;;2.67;2.47;;;4.40;31.00;;;;;;10342547;28;20234;-72
2023/02/27 22:35:52;;;;;;;2.30;2.10;;;4.30;31.00;;;;;;10352454;28;20231;-73
2023/02/27 22:40:57;;;;;;;2.70;2.20;;;4.30;31.00;;;;;;10334437;28;20247;-73
2023/02/27 22:46:01;;;;;;;2.37;2.17;;;4.30;31.00;;;;;;10346590;28;20241;-72
2023/02/27 22:51:06;;;;;;;2.30;2.10;;;4.30;31.10;;;;;;10357140;28;20230;-72
2023/02/27 22:56:12;;;;;;;2.57;2.33;;;4.30;31.20;;;;;;10355753;28;20239;-72
2023/02/27 23:01:17;;;;;;;2.63;2.00;;;4.30;31.10;;;;;;10359156;28;20230;-72
2023/02/27 23:06:25;;;;;;;2.17;1.97;;;4.20;31.20;;;;;;10343103;28;20239;-72
2023/02/27 23:11:29;;;;;;;2.80;2.23;;;4.20;31.20;;;;;;10347368;28;20234;-72
2023/02/27 23:16:33;;;;;;;2.70;2.50;;;4.20;31.50;;;;;;10359422;28;20230;-72
2023/02/27 23:21:36;;;;;;;2.53;2.33;;;4.20;31.20;;;;;;10355562;28;20591;-72
2023/02/27 23:26:43;;;;;;;3.47;2.60;;;4.20;31.30;;;;;;10357723;28;20706;-72
2023/02/27 23:31:46;;;;;;;2.67;2.27;;;4.10;31.10;;;;;;10358218;28;20230;-72
2023/02/27 23:36:50;;;;;;;2.60;2.40;;;4.10;31.20;;;;;;10355491;28;20730;-72
2023/02/27 23:41:54;;;;;;;2.37;2.13;;;4.10;31.20;;;;;;10358735;28;20226;-72
2023/02/27 23:46:58;;;;;;;2.77;2.50;;;4.00;31.20;;;;;;10358420;28;20621;-72
2023/02/27 23:52:01;;;;;;;2.67;2.47;;;4.00;31.20;;;;;;10357409;28;20234;-72
2023/02/27 23:57:06;;;;;;;2.63;2.43;;;3.90;31.20;;;;;;10357903;28;20226;-72
